Big Spring, Illinois
Current Conditions -  °F | °C
As of 3:53 PM on Friday 19 Dec 2014 (Local Time) from KMTO Reporting Station
Clear Clear  
Wind Chill:   Ceiling: Unl
Heat Index:   Visibility: 10mi
Dew Point: -4°   Wind: 3mph
Humidity: 73%   Direction: 30°NNE
Pressure: 30.28"   Gusts: NA
Location:  39.3144°N, 88.4504°W
Report Text: KMTO 192153Z AUTO 03003KT 10SM CLR 00/M04 A3028 RMK AO2 SLP261 T00001044
Loading
Personal Weather Stations






























Interactive Weather Map New forecast layout! Learn more

10-Day Weather Forecast

Advertisements
Track Severe Weather on mobile